createdAt,value
2019-02-22T00:03:48.768Z,30.94
2019-02-22T00:08:54.761Z,30.51
2019-02-22T00:14:00.789Z,33.17
2019-02-22T00:19:06.973Z,30.63
2019-02-22T00:24:12.999Z,55.69
2019-02-22T00:29:19.087Z,31.57
2019-02-22T00:34:25.097Z,55.05
2019-02-22T00:39:31.949Z,31.87
2019-02-22T00:44:37.949Z,32.73
2019-02-22T00:49:47.091Z,31.91
2019-02-22T00:54:54.015Z,30.80
2019-02-22T01:00:00.015Z,32.40
2019-02-22T01:05:08.159Z,32.09
2019-02-22T01:10:15.696Z,30.99
2019-02-22T01:15:21.700Z,58.27
2019-02-22T01:20:29.797Z,34.26
2019-02-22T01:25:36.892Z,63.71
2019-02-22T01:30:43.033Z,64.03
2019-02-22T01:35:49.129Z,37.75
2019-02-22T01:40:55.150Z,37.85
2019-02-22T01:46:01.817Z,35.68
2019-02-22T01:51:07.904Z,68.68
2019-02-22T01:56:13.895Z,66.76
2019-02-22T02:01:19.917Z,35.93
2019-02-22T02:06:25.902Z,66.94
2019-02-22T02:11:31.900Z,68.61
2019-02-22T02:16:38.884Z,38.05
2019-02-22T02:21:46.024Z,66.34
2019-02-22T02:26:52.111Z,33.17
2019-02-22T02:31:58.375Z,34.81
2019-02-22T02:37:04.376Z,35.36
2019-02-22T02:42:10.452Z,34.14
2019-02-22T02:47:16.423Z,33.21
2019-02-22T02:52:22.498Z,34.94
2019-02-22T02:57:28.578Z,35.17
2019-02-22T03:02:34.567Z,32.95
2019-02-22T03:07:40.599Z,57.25
2019-02-22T03:12:46.654Z,30.25
2019-02-22T03:17:52.683Z,29.56
2019-02-22T03:22:58.727Z,29.73
2019-02-22T03:28:04.721Z,28.90
2019-02-22T03:33:10.979Z,24.11
2019-02-22T03:38:16.957Z,25.25
2019-02-22T03:43:23.018Z,26.49
2019-02-22T03:48:29.162Z,28.17
2019-02-22T03:53:35.317Z,51.34
2019-02-22T03:58:41.561Z,29.27
2019-02-22T04:03:47.546Z,29.40
2019-02-22T04:08:54.157Z,28.66
2019-02-22T04:14:00.251Z,56.98
2019-02-22T04:19:07.020Z,31.07
2019-02-22T04:24:13.024Z,30.70
2019-02-22T04:29:21.850Z,32.84
2019-02-22T04:34:27.840Z,59.22
2019-02-22T04:39:33.930Z,62.63
2019-02-22T04:44:39.970Z,33.72
2019-02-22T04:49:45.978Z,58.05
2019-02-22T04:54:53.055Z,31.82
2019-02-22T04:59:59.060Z,31.46
2019-02-22T05:05:05.036Z,31.70
2019-02-22T05:10:11.082Z,33.82
2019-02-22T05:15:20.696Z,35.22
2019-02-22T05:20:26.762Z,37.09
2019-02-22T05:25:32.755Z,32.76
2019-02-22T05:30:39.282Z,35.40
2019-02-22T05:35:45.468Z,34.94
2019-02-22T05:40:55.541Z,36.34
2019-02-22T05:45:55.260Z,31.12
2019-02-22T05:51:01.270Z,36.15
2019-02-22T05:56:07.299Z,32.85
2019-02-22T06:01:13.291Z,31.12
2019-02-22T06:06:19.721Z,32.60
2019-02-22T06:11:28.139Z,29.86
2019-02-22T06:16:35.597Z,30.19
2019-02-22T06:21:45.213Z,60.12
2019-02-22T06:26:51.233Z,33.28
2019-02-22T06:31:57.342Z,34.42
2019-02-22T06:37:06.403Z,33.97
2019-02-22T06:42:12.787Z,36.79
2019-02-22T06:47:19.050Z,35.85
2019-02-22T06:52:31.281Z,38.81
2019-02-22T06:57:29.957Z,36.61
2019-02-22T07:02:38.492Z,38.10
2019-02-22T07:07:44.768Z,36.07
2019-02-22T07:12:56.725Z,34.30
2019-02-22T07:17:57.911Z,35.35
2019-02-22T07:23:05.471Z,35.41
2019-02-22T07:28:15.507Z,35.49
2019-02-22T07:33:15.877Z,34.58
2019-02-22T07:38:11.910Z,68.03
2019-02-22T07:43:17.984Z,36.27
2019-02-22T07:48:24.993Z,34.30
2019-02-22T07:53:31.145Z,34.90
2019-02-22T07:58:41.902Z,34.25
2019-02-22T08:03:42.236Z,33.65
2019-02-22T08:08:48.009Z,34.18
2019-02-22T08:13:45.527Z,33.04
2019-02-22T08:18:46.663Z,34.51
2019-02-22T08:23:49.966Z,34.13
2019-02-22T08:28:47.783Z,32.89
2019-02-22T08:33:58.157Z,34.17
2019-02-22T08:38:59.698Z,33.69
2019-02-22T08:44:00.531Z,31.73
2019-02-22T08:49:01.315Z,31.77
2019-02-22T08:54:03.107Z,31.90
2019-02-22T08:59:04.858Z,31.63
2019-02-22T09:04:03.841Z,28.36
2019-02-22T09:09:15.142Z,27.62
2019-02-22T09:14:16.241Z,24.97
2019-02-22T09:19:13.151Z,25.03
2019-02-22T09:24:19.102Z,24.93
2019-02-22T09:29:31.681Z,23.32
2019-02-22T09:34:31.552Z,25.22
2019-02-22T09:39:41.137Z,22.81
2019-02-22T09:44:51.806Z,39.93
2019-02-22T09:49:55.128Z,42.80
2019-02-22T09:54:54.061Z,21.23
2019-02-22T10:00:06.273Z,37.84
2019-02-22T10:05:05.898Z,17.92
2019-02-22T10:10:19.850Z,34.90
2019-02-22T10:15:13.036Z,18.81
2019-02-22T10:20:19.096Z,13.87
2019-02-22T10:25:30.516Z,15.22
2019-02-22T10:30:30.434Z,13.23
2019-02-22T10:35:43.934Z,13.09
2019-02-22T10:40:42.138Z,11.09
2019-02-22T10:45:54.195Z,11.10
2019-02-22T10:50:55.461Z,9.16
2019-02-22T10:55:53.021Z,10.27
2019-02-22T11:00:59.049Z,8.80
2019-02-22T11:06:06.683Z,8.35
2019-02-22T11:11:16.692Z,9.35
2019-02-22T11:16:13.541Z,14.03
2019-02-22T11:21:19.631Z,6.34
2019-02-22T11:26:26.055Z,8.91
2019-02-22T11:31:32.111Z,11.89
2019-02-22T11:36:38.211Z,10.77
2019-02-22T11:41:44.259Z,9.94
2019-02-22T11:46:50.303Z,12.42
2019-02-22T11:51:56.355Z,6.88
2019-02-22T11:57:02.331Z,7.20
2019-02-22T12:02:08.390Z,7.61
2019-02-22T12:07:15.740Z,6.50
2019-02-22T12:12:22.171Z,6.52
2019-02-22T12:17:28.233Z,7.25
2019-02-22T12:22:35.093Z,4.75
2019-02-22T12:27:41.139Z,10.57
2019-02-22T12:32:50.025Z,13.97
2019-02-22T12:37:58.314Z,17.98
2019-02-22T12:43:04.344Z,6.01
2019-02-22T12:48:10.352Z,4.40
2019-02-22T12:53:16.371Z,2.59
2019-02-22T12:58:22.517Z,3.29
2019-02-22T13:03:28.511Z,2.62
2019-02-22T13:08:34.566Z,2.06
2019-02-22T13:13:40.640Z,2.42
2019-02-22T13:18:46.843Z,2.15
2019-02-22T13:23:52.880Z,5.75
2019-02-22T13:28:58.969Z,1.95
2019-02-22T13:34:05.959Z,1.76
2019-02-22T13:39:11.970Z,2.34
2019-02-22T13:44:18.248Z,4.03
2019-02-22T13:49:24.237Z,6.33
2019-02-22T13:54:31.622Z,1.74
2019-02-22T13:59:38.037Z,3.10
2019-02-22T14:04:44.132Z,1.89
2019-02-22T14:09:50.170Z,1.64
2019-02-22T14:14:56.250Z,1.64
2019-02-22T14:20:02.335Z,1.98
2019-02-22T14:25:08.385Z,2.11
2019-02-22T14:30:14.433Z,5.42
2019-02-22T14:35:20.525Z,2.73
2019-02-22T14:40:26.544Z,2.66
2019-02-22T14:45:32.699Z,4.25
2019-02-22T14:50:40.432Z,3.28
2019-02-22T14:55:46.611Z,4.88
2019-02-22T15:00:54.016Z,3.57
2019-02-22T15:06:00.034Z,3.07
2019-02-22T15:11:06.220Z,2.77
2019-02-22T15:16:12.337Z,5.15
2019-02-22T15:21:18.750Z,3.64
2019-02-22T15:26:24.836Z,3.14
2019-02-22T15:31:36.155Z,3.15
2019-02-22T15:36:36.777Z,3.60
2019-02-22T15:41:42.903Z,3.41
2019-02-22T15:46:48.975Z,3.28
2019-02-22T15:51:55.007Z,3.25
2019-02-22T15:57:01.070Z,5.22
2019-02-22T16:02:07.472Z,3.12
2019-02-22T16:07:14.213Z,6.73
2019-02-22T16:12:20.619Z,4.31
2019-02-22T16:17:27.150Z,3.42
2019-02-22T16:22:33.361Z,3.30
2019-02-22T16:27:39.704Z,4.40
2019-02-22T16:32:45.840Z,3.01
2019-02-22T16:37:51.994Z,3.22
2019-02-22T16:42:58.125Z,2.99
2019-02-22T16:48:04.311Z,9.76
2019-02-22T16:53:10.400Z,3.91
2019-02-22T16:58:19.481Z,4.60
2019-02-22T17:03:26.214Z,4.11
2019-02-22T17:08:32.451Z,7.70
2019-02-22T17:13:38.473Z,4.11
2019-02-22T17:18:44.540Z,3.19
2019-02-22T17:23:50.591Z,5.32
2019-02-22T17:28:56.584Z,4.43
2019-02-22T17:34:05.476Z,3.88
2019-02-22T17:39:11.679Z,3.59
2019-02-22T17:44:17.692Z,2.87
2019-02-22T17:49:24.211Z,4.68
2019-02-22T17:54:30.213Z,6.63
2019-02-22T17:59:37.367Z,3.23
2019-02-22T18:04:43.534Z,2.95
2019-02-22T18:09:49.851Z,5.07
2019-02-22T18:14:55.902Z,3.36
2019-02-22T18:20:06.049Z,3.73
2019-02-22T18:25:05.811Z,6.00
2019-02-22T18:30:14.270Z,9.19
2019-02-22T18:35:19.839Z,4.13
2019-02-22T18:40:28.933Z,10.26
2019-02-22T18:45:36.004Z,5.96
2019-02-22T18:50:42.041Z,5.13
2019-02-22T18:55:50.393Z,8.83
2019-02-22T19:00:53.826Z,5.80
2019-02-22T19:06:04.998Z,4.04
2019-02-22T19:11:02.249Z,5.84
2019-02-22T19:16:08.344Z,5.54
2019-02-22T19:21:17.195Z,6.13
2019-02-22T19:26:24.778Z,11.10
2019-02-22T19:31:30.983Z,7.25
2019-02-22T19:36:58.697Z,6.57
2019-02-22T19:41:51.183Z,7.36
2019-02-22T19:46:50.229Z,7.11
2019-02-22T19:52:01.284Z,7.36
2019-02-22T20:02:14.354Z,19.22
2019-02-22T20:07:16.415Z,13.14
2019-02-22T20:12:24.568Z,7.36
2019-02-22T20:22:36.396Z,7.12
2019-02-22T20:27:36.629Z,6.62
2019-02-22T20:32:37.015Z,7.04
2019-02-22T20:37:40.394Z,6.30
2019-02-22T20:42:39.801Z,6.32
2019-02-22T20:47:49.284Z,5.96
2019-02-22T20:53:00.101Z,8.86
2019-02-22T20:58:00.862Z,9.06
2019-02-22T21:03:01.942Z,13.05
2019-02-22T21:08:02.870Z,12.97
2019-02-22T21:13:03.234Z,10.38
2019-02-22T21:18:16.384Z,9.02
2019-02-22T21:23:14.993Z,9.32
2019-02-22T21:28:20.300Z,9.11
2019-02-22T21:33:17.770Z,6.71
2019-02-22T21:38:28.022Z,6.86
2019-02-22T21:43:28.569Z,6.62
2019-02-22T21:48:35.162Z,7.47
2019-02-22T21:53:31.282Z,7.24
2019-02-22T21:58:41.493Z,6.62
2019-02-22T22:03:42.461Z,7.01
2019-02-22T22:08:42.974Z,11.37
2019-02-22T22:13:43.366Z,7.20
2019-02-22T22:18:45.125Z,11.97
2019-02-22T22:23:46.511Z,12.17
2019-02-22T22:28:46.715Z,12.28
2019-02-22T22:33:47.516Z,6.58
2019-02-22T22:38:47.921Z,8.05
2019-02-22T22:43:52.946Z,7.09
2019-02-22T22:48:50.927Z,7.68
2019-02-22T22:54:00.213Z,9.89
2019-02-22T22:59:01.203Z,21.03
2019-02-22T23:04:04.646Z,20.57
2019-02-22T23:09:03.636Z,10.77
2019-02-22T23:14:14.438Z,9.96
2019-02-22T23:19:14.693Z,9.85
2019-02-22T23:24:18.269Z,9.69
2019-02-22T23:29:17.142Z,10.39
2019-02-22T23:34:29.129Z,9.91
2019-02-22T23:39:28.846Z,11.10
2019-02-22T23:44:41.879Z,9.59
2019-02-22T23:49:41.776Z,10.78
2019-02-22T23:54:51.950Z,10.77
2019-02-22T23:59:49.721Z,9.44
